KLEW/LEW METAR and TAF weather

Enter ICAO airport designator
Station Type Date Time Source
KLEW METAR 2019/02/16 16:56 UTC NOAA

KLEW 161656Z AUTO 33009KT 10SM OVC043 01/M06 A2972 RMK AO2 SLP081 T00111061 FZRANO


Station Type Date Time Source
KLEW Decoded METAR 2019/02/16 16:56 UTC NOAA

Auburn-Lewiston, ME, United States (KLEW) 44-03N 070-17W
Feb 16, 2019 - 11:56 AM EST / 2019.02.16 1656 UTC
Wind: from the NNW (330 degrees) at 10 MPH (9 KT):0
Visibility: 10 mile(s):0
Sky conditions: overcast
Temperature: 34.0 F (1.1 C)
Windchill: 26 F (-3 C):1
Dew Point: 21.0 F (-6.1 C)
Relative Humidity: 58%
Pressure (altimeter): 29.72 in. Hg (1006 hPa)
ob: KLEW 161656Z AUTO 33009KT 10SM OVC043 01/M06 A2972 RMK AO2 SLP081 T00111061 FZRANO
cycle: 17

Station Type Date Time Source
KLEW TAF UTC NOAA

Error!


Example: see airport list